createdAt,value
2017-10-12T00:02:10.888Z,15.60
2017-10-12T00:04:39.176Z,15.70
2017-10-12T00:07:07.423Z,15.70
2017-10-12T00:09:34.892Z,15.70
2017-10-12T00:12:03.175Z,15.80
2017-10-12T00:14:31.410Z,15.80
2017-10-12T00:16:58.914Z,15.80
2017-10-12T00:19:27.159Z,15.80
2017-10-12T00:21:54.639Z,15.80
2017-10-12T00:24:22.930Z,15.80
2017-10-12T00:26:51.181Z,15.80
2017-10-12T00:29:18.682Z,15.80
2017-10-12T00:31:46.935Z,15.90
2017-10-12T00:34:15.211Z,15.90
2017-10-12T00:36:43.473Z,15.90
2017-10-12T00:39:11.773Z,15.90
2017-10-12T00:41:40.032Z,15.90
2017-10-12T00:44:07.551Z,15.90
2017-10-12T00:46:35.053Z,15.90
2017-10-12T00:49:02.543Z,15.90
2017-10-12T00:51:30.035Z,15.90
2017-10-12T00:53:57.504Z,15.90
2017-10-12T00:56:24.996Z,15.90
2017-10-12T00:58:53.267Z,15.90
2017-10-12T01:01:21.525Z,15.90
2017-10-12T01:03:49.012Z,15.80
2017-10-12T01:06:17.276Z,15.80
2017-10-12T01:08:44.788Z,15.80
2017-10-12T01:11:12.256Z,15.80
2017-10-12T01:13:39.751Z,15.90
2017-10-12T01:16:08.035Z,15.80
2017-10-12T01:18:36.312Z,15.90
2017-10-12T01:21:04.572Z,15.90
2017-10-12T01:23:32.047Z,15.90
2017-10-12T01:26:00.315Z,15.90
2017-10-12T01:28:29.307Z,15.80
2017-10-12T01:30:56.780Z,15.90
2017-10-12T01:33:25.034Z,15.90
2017-10-12T01:35:52.511Z,15.90
2017-10-12T01:38:20.767Z,15.90
2017-10-12T01:40:49.032Z,15.90
2017-10-12T01:43:16.499Z,15.90
2017-10-12T01:45:43.991Z,15.90
2017-10-12T01:48:12.228Z,15.90
2017-10-12T01:50:39.715Z,15.90
2017-10-12T01:53:08.000Z,16.00
2017-10-12T01:55:36.247Z,16.00
2017-10-12T01:58:03.732Z,16.00
2017-10-12T02:00:31.972Z,16.10
2017-10-12T02:02:59.496Z,16.10
2017-10-12T02:05:26.968Z,16.10
2017-10-12T02:07:54.437Z,16.10
2017-10-12T02:10:21.961Z,16.20
2017-10-12T02:12:49.435Z,16.20
2017-10-12T02:15:16.923Z,16.30
2017-10-12T02:17:44.396Z,16.30
2017-10-12T02:20:13.389Z,16.30
2017-10-12T02:22:42.501Z,16.40
2017-10-12T02:25:10.740Z,16.40
2017-10-12T02:27:38.235Z,16.40
2017-10-12T02:30:06.483Z,16.50
2017-10-12T02:32:33.952Z,16.50
2017-10-12T02:35:02.210Z,16.60
2017-10-12T02:37:29.701Z,16.60
2017-10-12T02:39:57.983Z,16.60
2017-10-12T02:42:26.241Z,16.50
2017-10-12T02:44:55.221Z,16.50
2017-10-12T02:47:22.812Z,16.50
2017-10-12T02:49:51.066Z,16.50
2017-10-12T02:52:18.551Z,16.50
2017-10-12T02:54:46.790Z,16.40
2017-10-12T02:57:14.277Z,16.40
2017-10-12T02:59:42.531Z,16.40
2017-10-12T03:02:10.016Z,16.40
2017-10-12T03:04:38.268Z,16.40
2017-10-12T03:07:05.857Z,16.40
2017-10-12T03:09:34.098Z,16.40
2017-10-12T03:12:01.594Z,16.40
2017-10-12T03:14:29.835Z,16.40
2017-10-12T03:16:57.335Z,16.40
2017-10-12T03:19:25.576Z,16.40
2017-10-12T03:21:53.068Z,16.40
2017-10-12T03:24:21.319Z,16.40
2017-10-12T03:26:49.568Z,16.40
2017-10-12T03:29:17.055Z,16.40
2017-10-12T03:31:45.314Z,16.40
2017-10-12T03:34:12.796Z,16.40
2017-10-12T03:36:41.066Z,16.40
2017-10-12T03:39:10.051Z,16.40
2017-10-12T03:41:37.552Z,16.40
2017-10-12T03:44:05.018Z,16.40
2017-10-12T03:46:32.483Z,16.30
2017-10-12T03:48:59.975Z,16.30
2017-10-12T03:51:27.498Z,16.30
2017-10-12T03:53:55.012Z,16.30
2017-10-12T03:56:22.487Z,16.30
2017-10-12T03:58:50.752Z,16.30
2017-10-12T04:01:19.007Z,16.30
2017-10-12T04:03:46.492Z,16.30
2017-10-12T04:06:14.746Z,16.20
2017-10-12T04:08:42.263Z,16.20
2017-10-12T04:11:09.741Z,16.20
2017-10-12T04:13:37.220Z,16.20
2017-10-12T04:16:04.711Z,16.20
2017-10-12T04:18:32.968Z,16.10
2017-10-12T04:21:01.203Z,16.10
2017-10-12T04:23:28.671Z,16.10
2017-10-12T04:25:56.158Z,16.00
2017-10-12T04:28:25.148Z,15.90
2017-10-12T04:30:52.647Z,15.90
2017-10-12T04:33:20.123Z,15.80
2017-10-12T04:35:47.596Z,15.80
2017-10-12T04:38:15.084Z,15.80
2017-10-12T04:40:42.550Z,15.80
2017-10-12T04:43:10.823Z,15.70
2017-10-12T04:45:39.072Z,15.80
2017-10-12T04:48:06.557Z,15.70
2017-10-12T04:50:34.811Z,15.80
2017-10-12T04:53:02.301Z,15.80
2017-10-12T04:55:30.560Z,15.80
2017-10-12T04:57:59.559Z,15.80
2017-10-12T05:00:27.034Z,15.80
2017-10-12T05:02:55.318Z,15.80
2017-10-12T05:05:22.804Z,15.70
2017-10-12T05:07:50.300Z,15.70
2017-10-12T05:10:17.784Z,15.70
2017-10-12T05:12:46.036Z,15.60
2017-10-12T05:15:13.519Z,15.70
2017-10-12T05:17:41.752Z,15.60
2017-10-12T05:20:10.282Z,15.60
2017-10-12T05:22:38.517Z,15.60
2017-10-12T05:25:06.005Z,15.60
2017-10-12T05:27:34.267Z,15.70
2017-10-12T05:30:01.745Z,15.60
2017-10-12T05:32:29.994Z,15.70
2017-10-12T05:34:57.485Z,15.70
2017-10-12T05:37:25.719Z,15.70
2017-10-12T05:39:53.218Z,15.70
2017-10-12T05:42:21.523Z,15.70
2017-10-12T05:44:49.065Z,15.70
2017-10-12T05:47:17.256Z,15.70
2017-10-12T05:49:44.785Z,15.60
2017-10-12T05:52:13.064Z,15.70
2017-10-12T05:54:41.325Z,15.70
2017-10-12T07:28:56.488Z,15.00
2017-10-12T07:31:23.987Z,15.00
2017-10-12T07:33:51.476Z,15.00
2017-10-12T07:36:18.955Z,15.10
2017-10-12T07:38:46.455Z,15.00
2017-10-12T07:41:13.924Z,15.10
2017-10-12T07:43:41.420Z,15.20
2017-10-12T07:46:08.904Z,15.20
2017-10-12T07:48:36.379Z,15.20
2017-10-12T07:51:03.875Z,15.30
2017-10-12T07:53:32.126Z,15.40
2017-10-12T07:55:59.630Z,15.40
2017-10-12T07:58:27.148Z,15.40
2017-10-12T08:00:54.634Z,15.50
2017-10-12T08:03:22.209Z,15.60
2017-10-12T08:05:49.684Z,15.60
2017-10-12T08:08:17.187Z,15.60
2017-10-12T08:10:45.444Z,15.70
2017-10-12T08:13:12.923Z,15.60
2017-10-12T08:15:41.191Z,15.80
2017-10-12T08:18:08.663Z,15.80
2017-10-12T08:20:36.200Z,15.90
2017-10-12T08:23:03.683Z,15.90
2017-10-12T08:25:31.925Z,15.90
2017-10-12T08:27:59.416Z,15.90
2017-10-12T08:30:27.679Z,15.90
2017-10-12T08:32:55.176Z,15.90
2017-10-12T08:35:22.708Z,16.10
2017-10-12T08:37:50.952Z,16.40
2017-10-12T08:40:18.449Z,16.40
2017-10-12T08:42:46.692Z,16.50
2017-10-12T08:45:14.209Z,16.50
2017-10-12T08:47:41.743Z,16.50
2017-10-12T08:50:09.994Z,16.70
2017-10-12T08:52:38.983Z,16.70
2017-10-12T08:55:07.969Z,16.60
2017-10-12T08:57:35.465Z,16.60
2017-10-12T09:00:03.716Z,16.90
2017-10-12T09:02:31.957Z,16.90
2017-10-12T09:04:59.508Z,16.90
2017-10-12T09:07:27.005Z,17.00
2017-10-12T09:09:55.282Z,16.90
2017-10-12T09:12:23.532Z,16.80
2017-10-12T09:14:51.015Z,16.80
2017-10-12T09:17:18.527Z,16.90
2017-10-12T09:19:46.004Z,17.00
2017-10-12T09:22:13.504Z,17.20
2017-10-12T09:24:41.005Z,17.10
2017-10-12T09:27:09.285Z,17.20
2017-10-12T09:29:36.918Z,17.20
2017-10-12T09:32:05.193Z,17.30
2017-10-12T09:34:33.584Z,17.20
2017-10-12T09:37:01.840Z,17.40
2017-10-12T09:39:30.119Z,17.50
2017-10-12T09:41:58.432Z,17.60
2017-10-12T09:44:25.909Z,17.60
2017-10-12T09:46:53.421Z,17.70
2017-10-12T09:49:21.663Z,17.70
2017-10-12T09:51:49.149Z,17.60
2017-10-12T09:54:17.422Z,17.50
2017-10-12T09:56:45.685Z,17.30
2017-10-12T09:59:13.239Z,17.30
2017-10-12T10:01:40.726Z,17.20
2017-10-12T10:04:09.033Z,17.20
2017-10-12T10:06:36.571Z,17.20
2017-10-12T10:09:04.816Z,17.30
2017-10-12T11:47:17.712Z,18.50
2017-10-12T11:49:45.982Z,18.40
2017-10-12T11:52:13.460Z,18.40
2017-10-12T11:54:40.932Z,18.40
2017-10-12T11:57:08.431Z,18.30
2017-10-12T11:59:35.916Z,18.20
2017-10-12T12:02:04.192Z,18.50
2017-10-12T12:04:32.444Z,18.60
2017-10-12T12:06:59.939Z,18.60
2017-10-12T12:09:28.182Z,18.50
2017-10-12T12:11:56.688Z,18.50
2017-10-12T12:14:24.953Z,18.70
2017-10-12T12:16:52.438Z,18.70
2017-10-12T12:19:20.687Z,18.60
2017-10-12T12:21:48.161Z,18.60
2017-10-12T12:24:16.434Z,18.60
2017-10-12T12:26:44.739Z,18.50
2017-10-12T12:29:12.206Z,18.50
2017-10-12T12:31:39.742Z,18.60
2017-10-12T12:34:07.983Z,18.40
2017-10-12T12:36:35.580Z,18.40
2017-10-12T12:39:03.825Z,18.40
2017-10-12T12:41:31.332Z,18.40
2017-10-12T12:43:58.801Z,18.50
2017-10-12T12:46:26.297Z,18.50
2017-10-12T12:48:53.790Z,18.30
2017-10-12T12:51:22.041Z,18.50
2017-10-12T12:53:50.307Z,18.80
2017-10-12T12:56:17.780Z,18.80
2017-10-12T12:58:46.058Z,18.80
2017-10-12T13:01:14.343Z,18.90
2017-10-12T13:03:42.580Z,19.00
2017-10-12T13:06:10.088Z,19.00
2017-10-12T13:08:38.320Z,19.20
2017-10-12T13:11:05.823Z,19.10
2017-10-12T13:13:34.073Z,19.20
2017-10-12T13:16:01.572Z,19.20
2017-10-12T13:18:29.054Z,19.10
2017-10-12T13:20:56.527Z,19.20
2017-10-12T13:23:24.055Z,18.90
2017-10-12T13:25:51.534Z,18.80
2017-10-12T13:28:19.016Z,18.80
2017-10-12T13:30:46.493Z,19.20
2017-10-12T13:33:14.771Z,19.90
2017-10-12T13:35:43.007Z,19.80
2017-10-12T13:38:10.487Z,19.80
2017-10-12T13:40:38.004Z,19.90
2017-10-12T13:43:05.502Z,19.90
2017-10-12T13:45:33.008Z,20.00
2017-10-12T13:48:00.544Z,20.00
2017-10-12T13:50:28.822Z,20.00
2017-10-12T13:52:57.063Z,20.30
2017-10-12T13:55:24.552Z,20.20
2017-10-12T13:57:52.816Z,19.90
2017-10-12T14:00:20.351Z,19.90
2017-10-12T14:02:47.854Z,19.90
2017-10-12T14:05:16.083Z,20.00
2017-10-12T14:07:43.587Z,20.00
2017-10-12T14:10:11.864Z,20.20
2017-10-12T14:12:40.116Z,20.20
2017-10-12T14:15:07.611Z,20.30
2017-10-12T14:17:35.852Z,19.90
2017-10-12T14:20:04.164Z,19.80
2017-10-12T14:22:32.424Z,19.60
2017-10-12T14:25:00.708Z,19.50
2017-10-12T14:27:28.223Z,19.40
2017-10-12T14:29:55.695Z,19.30
2017-10-12T14:32:23.222Z,19.20
2017-10-12T14:34:50.705Z,19.20
2017-10-12T14:37:18.183Z,19.10
2017-10-12T14:39:45.683Z,19.00
2017-10-12T14:42:13.153Z,18.80
2017-10-12T14:44:40.664Z,18.80
2017-10-12T14:47:09.860Z,18.70
2017-10-12T14:49:37.331Z,18.60
2017-10-12T14:52:05.601Z,18.50
2017-10-12T14:54:33.849Z,18.40
2017-10-12T14:57:01.352Z,18.30
2017-10-12T14:59:28.838Z,18.20
2017-10-12T15:01:56.323Z,18.20
2017-10-12T15:04:23.820Z,18.10
2017-10-12T15:06:52.061Z,18.20
2017-10-12T15:09:19.582Z,18.20
2017-10-12T15:11:47.072Z,18.20
2017-10-12T15:14:14.539Z,18.20
2017-10-12T15:16:42.035Z,18.20
2017-10-12T15:19:10.292Z,18.00
2017-10-12T15:21:37.764Z,18.00
2017-10-12T15:24:06.008Z,18.10
2017-10-12T15:26:34.312Z,18.10
2017-10-12T15:29:02.589Z,18.10
2017-10-12T15:31:30.839Z,18.00
2017-10-12T15:33:58.355Z,18.00
2017-10-12T15:36:25.988Z,18.00
2017-10-12T15:38:54.230Z,17.80
2017-10-12T15:41:21.713Z,17.80
2017-10-12T15:43:49.987Z,17.70
2017-10-12T15:46:17.459Z,17.70
2017-10-12T15:48:45.053Z,17.60
2017-10-12T15:51:12.527Z,17.60
2017-10-12T15:53:40.065Z,17.60
2017-10-12T15:56:07.561Z,17.50
2017-10-12T15:58:35.039Z,17.40
2017-10-12T16:01:03.285Z,17.30
2017-10-12T16:03:30.792Z,17.30
2017-10-12T16:05:59.035Z,17.20
2017-10-12T16:08:26.525Z,17.20
2017-10-12T16:10:54.844Z,17.00
2017-10-12T16:13:22.320Z,17.00
2017-10-12T16:15:49.795Z,17.00
2017-10-12T16:18:18.812Z,16.80
2017-10-12T16:20:47.059Z,16.80
2017-10-12T16:23:14.527Z,16.80
2017-10-12T16:25:42.016Z,16.70
2017-10-12T16:28:09.519Z,16.70
2017-10-12T16:30:36.992Z,16.70
2017-10-12T16:35:32.037Z,16.50
2017-10-12T16:38:00.345Z,16.50
2017-10-12T16:40:27.852Z,16.40
2017-10-12T16:42:56.133Z,16.30
2017-10-12T16:45:24.376Z,16.20
2017-10-12T16:47:51.899Z,16.20
2017-10-12T16:52:46.887Z,16.20
2017-10-12T16:55:15.187Z,16.10
2017-10-12T16:57:43.427Z,16.10
2017-10-12T17:00:10.943Z,16.10
2017-10-12T17:02:38.503Z,16.10
2017-10-12T17:05:06.009Z,16.10
2017-10-12T17:07:35.061Z,16.00
2017-10-12T17:10:02.546Z,16.00
2017-10-12T17:12:30.049Z,15.90
2017-10-12T17:14:58.284Z,15.90
2017-10-12T17:17:25.763Z,15.90
2017-10-12T17:19:53.247Z,15.80
2017-10-12T17:22:21.503Z,15.80
2017-10-12T17:24:49.767Z,15.80
2017-10-12T17:27:18.028Z,15.80
2017-10-12T17:29:45.511Z,15.70
2017-10-12T17:32:13.016Z,15.70
2017-10-12T17:34:40.495Z,15.70
2017-10-12T17:37:07.987Z,15.60
2017-10-12T17:39:36.235Z,15.60
2017-10-12T17:42:03.728Z,15.60
2017-10-12T17:44:31.995Z,15.40
2017-10-12T17:47:00.252Z,15.30
2017-10-12T17:49:27.747Z,15.30
2017-10-12T17:51:55.992Z,15.20
2017-10-12T17:54:38.482Z,15.10
2017-10-12T17:56:51.069Z,15.10
2017-10-12T17:59:18.560Z,15.10
2017-10-12T18:01:46.052Z,15.20
2017-10-12T18:06:41.863Z,15.10
2017-10-12T18:09:09.365Z,15.10
2017-10-12T18:11:37.659Z,15.10
2017-10-12T18:14:05.169Z,15.00
2017-10-12T18:16:32.651Z,15.00
2017-10-12T18:19:00.910Z,15.00
2017-10-12T18:21:29.172Z,15.00
2017-10-12T18:23:56.698Z,15.00
2017-10-12T18:26:24.181Z,15.00
2017-10-12T18:28:51.684Z,15.00
2017-10-12T18:31:19.923Z,14.90
2017-10-12T18:33:47.463Z,14.90
2017-10-12T18:36:14.960Z,14.80
2017-10-12T18:38:43.215Z,14.80
2017-10-12T18:41:10.704Z,14.80
2017-10-12T18:43:38.940Z,14.70
2017-10-12T18:46:06.435Z,14.70
2017-10-12T18:48:34.671Z,14.70
2017-10-12T18:51:02.144Z,14.60
2017-10-12T18:53:30.417Z,14.70
2017-10-12T18:55:57.891Z,14.60
2017-10-12T18:58:26.196Z,14.70
2017-10-12T19:00:54.439Z,14.60
2017-10-12T19:03:21.988Z,14.60
2017-10-12T19:05:49.483Z,14.60
2017-10-12T19:08:17.761Z,14.60
2017-10-12T19:10:46.053Z,14.50
2017-10-12T19:13:13.570Z,14.50
2017-10-12T19:15:41.065Z,14.50
2017-10-12T19:18:08.565Z,14.50
2017-10-12T19:20:36.088Z,14.50
2017-10-12T19:23:03.661Z,14.50
2017-10-12T19:25:31.159Z,14.50
2017-10-12T19:27:58.656Z,14.40
2017-10-12T19:30:26.895Z,14.40
2017-10-12T19:32:55.175Z,14.40
2017-10-12T19:35:22.653Z,14.40
2017-10-12T19:37:50.935Z,14.40
2017-10-12T19:40:19.179Z,14.40
2017-10-12T19:42:46.684Z,14.40
2017-10-12T19:45:14.193Z,14.40
2017-10-12T19:47:41.684Z,14.40
2017-10-12T19:50:09.947Z,14.40
2017-10-12T19:52:38.210Z,14.50
2017-10-12T19:55:07.263Z,14.50
2017-10-12T19:57:34.753Z,14.50
2017-10-12T20:00:03.795Z,14.50
2017-10-12T20:02:32.065Z,14.50
2017-10-12T20:04:59.569Z,14.50
2017-10-12T20:07:27.074Z,14.50
2017-10-12T20:09:54.588Z,14.40
2017-10-12T20:12:22.087Z,14.40
2017-10-12T20:14:51.084Z,14.40
2017-10-12T20:17:19.339Z,14.40
2017-10-12T20:19:46.865Z,14.40
2017-10-12T20:22:14.348Z,14.40
2017-10-12T20:24:41.839Z,14.40
2017-10-12T20:27:10.091Z,14.30
2017-10-12T20:29:37.610Z,14.30
2017-10-12T20:32:05.085Z,14.30
2017-10-12T20:34:32.564Z,14.30
2017-10-12T20:37:00.156Z,14.30
2017-10-12T20:39:28.465Z,14.20
2017-10-12T20:44:24.505Z,14.20
2017-10-12T20:46:52.027Z,14.20
2017-10-12T20:49:20.277Z,14.20
2017-10-12T20:51:47.761Z,14.10
2017-10-12T20:54:16.043Z,14.10
2017-10-12T20:56:44.295Z,14.10
2017-10-12T20:59:11.805Z,14.00
2017-10-12T21:01:39.285Z,14.00
2017-10-12T21:04:06.840Z,14.00
2017-10-12T21:06:34.336Z,14.00
2017-10-12T21:09:01.811Z,14.00
2017-10-12T21:11:29.328Z,13.90
2017-10-12T21:13:56.814Z,13.90
2017-10-12T21:16:25.301Z,13.90
2017-10-12T21:18:52.780Z,13.90
2017-10-12T21:21:21.025Z,13.80
2017-10-12T21:23:48.586Z,13.80
2017-10-12T21:26:16.084Z,13.80
2017-10-12T21:28:43.591Z,13.80
2017-10-12T21:31:11.075Z,13.80
2017-10-12T21:33:39.353Z,13.70
2017-10-12T21:36:07.613Z,13.70
2017-10-12T21:38:35.092Z,13.70
2017-10-12T21:41:03.355Z,13.60
2017-10-12T21:43:30.839Z,13.60
2017-10-12T21:45:59.094Z,13.60
2017-10-12T21:48:26.580Z,13.60
2017-10-12T21:50:54.154Z,13.60
2017-10-12T21:53:21.651Z,13.60
2017-10-12T21:55:49.156Z,13.60
2017-10-12T21:58:16.706Z,13.60
2017-10-12T22:00:44.215Z,13.60
2017-10-12T22:03:11.691Z,13.60
2017-10-12T22:05:39.276Z,13.60
2017-10-12T22:08:07.519Z,13.60
2017-10-12T22:10:35.004Z,13.50
2017-10-12T22:13:02.481Z,13.60
2017-10-12T22:15:30.830Z,13.70
2017-10-12T22:17:58.310Z,13.60
2017-10-12T22:20:26.556Z,13.70
2017-10-12T22:22:54.040Z,13.70
2017-10-12T22:25:21.542Z,13.80
2017-10-12T22:27:49.036Z,13.70
2017-10-12T22:30:16.517Z,13.80
2017-10-12T22:32:44.788Z,13.70
2017-10-12T22:35:13.778Z,13.70
2017-10-12T22:37:41.256Z,13.70
2017-10-12T22:40:09.535Z,13.70
2017-10-12T22:42:37.808Z,13.70
2017-10-12T22:45:05.318Z,13.70
2017-10-12T22:47:32.791Z,13.70
2017-10-12T22:50:00.304Z,13.80
2017-10-12T22:52:27.799Z,13.80
2017-10-12T22:54:55.298Z,13.80
2017-10-12T22:57:23.581Z,13.80
2017-10-12T22:59:51.855Z,13.80
2017-10-12T23:02:20.097Z,13.80
2017-10-12T23:04:47.600Z,13.80
2017-10-12T23:07:15.076Z,13.80
2017-10-12T23:09:42.563Z,13.70
2017-10-12T23:12:10.197Z,13.70
2017-10-12T23:14:37.724Z,13.70
2017-10-12T23:17:05.984Z,13.70
2017-10-12T23:19:34.740Z,13.70
2017-10-12T23:22:02.296Z,13.70
2017-10-12T23:24:29.794Z,13.70
2017-10-12T23:26:58.078Z,13.60
2017-10-12T23:29:26.330Z,13.60
2017-10-12T23:31:53.843Z,13.60
2017-10-12T23:34:21.322Z,13.60
2017-10-12T23:36:48.839Z,13.50
2017-10-12T23:39:17.091Z,13.50
2017-10-12T23:41:45.369Z,13.60
2017-10-12T23:44:13.636Z,13.60
2017-10-12T23:46:41.110Z,13.60
2017-10-12T23:49:09.381Z,13.70
2017-10-12T23:51:38.256Z,13.70
2017-10-12T23:54:05.732Z,13.70
2017-10-12T23:56:34.740Z,13.70
